Main page
METAR-TAF:

METAR-TAF

Airports :

Dehradun Airport

Dehradun, India

latitude: 30-11-23N, longitude: 78-10-49E, elevation: 558 m

METAR: missing

Time: 08:48 (03:18 UTC)

Forecast

The report was made 4 hours and 18 minutes ago, at 23:00 UTC
Forecast valid from 03 at 00 UTC to 03 at 09 UTC
Wind 6 kt from the Northeast
Visibility: 2500 m
Broken clouds at a height of 2000 ft
Overcast at a height of 6000 ft
mist, light rain
Temporary
from 03 at 06 UTC to 03 at 09 UTC
Few clouds at a height of 3000 ft, Cumulonimbus.

TAF: VIDN 022300Z 0300/0309 05006KT 2500 BR -RA BKN020 OVC060 TEMPO 0306/0309 FEW030CB

Weather observations and forecasts of more than 4000 airports (METAR and TAF reports).

The available stations are represented by yellow and red dots on the map.

Hover mouse over dot to see the name of the station.

Then click to see weather observations and forecasts.

To change the map : click on the green buttons with a black cross to zoom in, on the green button with a dash to zoom out, or on the green arrows for adjacent maps.


METAR-TAF: